Time;durP1;ratioP1;P1;durP2;ratioP2;P2;SDS_P1;SDS_P2;PMS_P1;PMS_P2;Temp;Humidity;BMP_temperature;BMP_pressure;BME280_temperature;BME280_humidity;BME280_pressure;Samples;Min_cycle;Max_cycle;Signal;HPM_P1;HPM_P2
2021/04/21 00:01:57;;;;;;;13.13;9.48;;;179.70;2252.80;;;;;;5038629;28;20120;-71
2021/04/21 00:04:24;;;;;;;14.10;9.10;;;179.70;2252.80;;;;;;5038323;28;20319;-71
2021/04/21 00:06:52;;;;;;;14.43;9.55;;;179.70;2252.80;;;;;;5038130;28;20452;-69
2021/04/21 00:09:20;;;;;;;13.15;9.20;;;179.70;2252.80;;;;;;5038378;28;20030;-71
2021/04/21 00:11:48;;;;;;;14.80;10.27;;;179.70;2252.80;;;;;;5038634;28;20340;-71
2021/04/21 00:14:17;;;;;;;17.37;10.77;;;179.70;2252.80;;;;;;5038037;28;20350;-71
2021/04/21 00:16:44;;;;;;;;;;;179.60;2252.80;;;;;;5038967;28;20155;-70
2021/04/21 00:19:12;;;;;;;18.45;10.10;;;179.70;2252.80;;;;;;5038180;28;20298;-70
2021/04/21 00:21:39;;;;;;;15.73;10.32;;;179.70;2252.80;;;;;;5037950;28;20107;-70
2021/04/21 00:24:08;;;;;;;14.18;9.20;;;179.70;2252.80;;;;;;5037865;28;20367;-70
2021/04/21 00:26:35;;;;;;;16.63;11.40;;;179.70;2252.80;;;;;;5038107;28;20064;-70
2021/04/21 00:29:04;;;;;;;20.15;11.63;;;179.60;2252.80;;;;;;5037873;28;20303;-70
2021/04/21 00:31:31;;;;;;;18.55;12.70;;;179.60;2252.80;;;;;;5037635;28;20021;-70
2021/04/21 00:33:59;;;;;;;13.60;9.45;;;179.60;2252.80;;;;;;5037769;28;20084;-71
2021/04/21 00:36:27;;;;;;;14.20;9.90;;;179.60;2252.80;;;;;;5037920;28;20079;-71
2021/04/21 00:38:55;;;;;;;15.45;10.45;;;179.60;2252.80;;;;;;5038214;28;20116;-70
2021/04/21 00:41:29;;;;;;;15.38;10.18;;;179.50;2252.80;;;;;;5037688;28;20036;-70
2021/04/21 00:44:42;;;;;;;20.27;12.13;;;179.50;2252.80;;;;;;5038027;28;20052;-69
2021/04/21 00:47:12;;;;;;;14.35;9.45;;;179.40;2252.80;;;;;;5036677;28;20315;-70
2021/04/21 00:49:57;;;;;;;13.70;9.63;;;179.40;2252.80;;;;;;5032239;28;20030;-71
2021/04/21 00:52:42;;;;;;;13.70;8.10;;;179.20;2252.80;;;;;;5040062;28;20059;-70
2021/04/21 00:55:10;;;;;;;12.95;9.88;;;179.20;2252.80;;;;;;5040107;28;20119;-71
2021/04/21 00:58:03;;;;;;;14.65;9.93;;;154.50;2252.80;;;;;;5039715;28;20026;-70
2021/04/21 01:00:33;;;;;;;12.98;8.65;;;154.50;2252.80;;;;;;5039717;28;20030;-70
2021/04/21 01:03:21;;;;;;;13.75;9.13;;;154.40;2252.80;;;;;;5039053;28;20407;-71
2021/04/21 01:05:54;;;;;;;14.30;9.40;;;154.40;2252.80;;;;;;5039534;28;20026;-69
2021/04/21 01:08:32;;;;;;;14.02;9.55;;;154.40;2252.80;;;;;;5039870;28;20151;-70
2021/04/21 01:11:04;;;;;;;16.33;9.48;;;154.40;2252.80;;;;;;5039543;28;20030;-69
2021/04/21 01:13:37;;;;;;;17.60;10.07;;;154.40;2252.80;;;;;;5039717;28;20025;-69
2021/04/21 01:16:05;;;;;;;14.57;9.55;;;154.30;2252.80;;;;;;5039650;28;20040;-71
2021/04/21 01:18:33;;;;;;;13.37;9.27;;;154.30;2252.80;;;;;;5039300;28;20034;-70
2021/04/21 01:21:19;;;;;;;14.48;9.07;;;154.30;2252.80;;;;;;5039585;28;20043;-70
2021/04/21 01:23:54;;;;;;;14.27;9.77;;;154.30;2252.80;;;;;;5039294;28;20037;-70
2021/04/21 01:26:46;;;;;;;12.13;8.50;;;154.30;2252.80;;;;;;5038920;28;20033;-71
2021/04/21 01:29:17;;;;;;;12.00;8.68;;;154.40;2252.80;;;;;;5039466;28;20033;-71
2021/04/21 01:31:47;;;;;;;12.57;9.02;;;154.40;2252.80;;;;;;5039208;28;20048;-71
2021/04/21 01:34:14;;;;;;;13.02;8.88;;;154.40;2252.80;;;;;;5038408;28;20453;-70
2021/04/21 01:36:44;;;;;;;12.98;9.48;;;154.40;2252.80;;;;;;5038713;28;20423;-71
2021/04/21 01:39:11;;;;;;;10.93;7.78;;;154.40;2252.80;;;;;;5038677;28;20017;-71
2021/04/21 01:41:42;;;;;;;12.57;8.65;;;154.40;2252.80;;;;;;5038667;28;20027;-70
2021/04/21 01:44:31;;;;;;;13.15;8.57;;;154.40;2252.80;;;;;;5039184;28;20410;-70
2021/04/21 01:47:03;;;;;;;13.60;8.00;;;154.40;2252.80;;;;;;5038244;28;20342;-71
2021/04/21 01:49:37;;;;;;;15.70;9.75;;;154.40;2252.80;;;;;;5038780;28;20068;-70
2021/04/21 01:52:14;;;;;;;14.32;9.45;;;154.30;2252.80;;;;;;5038283;28;20400;-71
2021/04/21 01:54:43;;;;;;;12.35;8.65;;;154.30;2252.80;;;;;;5038859;28;20120;-70
2021/04/21 01:57:22;;;;;;;14.23;9.20;;;154.30;2252.80;;;;;;5038561;28;20052;-71
2021/04/21 01:59:54;;;;;;;15.23;9.85;;;154.20;2252.80;;;;;;5038537;28;20026;-70
2021/04/21 02:02:39;;;;;;;12.88;9.30;;;154.20;2252.80;;;;;;5037667;28;20410;-70
2021/04/21 02:05:26;;;;;;;11.70;8.88;;;154.20;2252.80;;;;;;5038631;28;20031;-71
2021/04/21 02:08:29;;;;;;;15.10;10.68;;;154.20;2252.80;;;;;;5038421;28;20390;-70
2021/04/21 02:11:20;;;;;;;13.43;8.85;;;154.10;2252.80;;;;;;5013978;28;20033;-69
2021/04/21 02:13:52;;;;;;;13.45;9.25;;;154.00;2252.80;;;;;;5037913;28;20072;-70
2021/04/21 02:16:56;;;;;;;14.85;9.20;;;154.10;2252.80;;;;;;5038221;28;20075;-70
2021/04/21 02:19:31;;;;;;;15.55;10.73;;;154.00;2252.80;;;;;;5004050;28;20037;-69
2021/04/21 02:22:15;;;;;;;14.75;10.05;;;154.00;2252.80;;;;;;5037574;28;20021;-70
2021/04/21 02:24:48;;;;;;;15.07;9.38;;;154.00;2252.80;;;;;;5038185;28;20112;-69
2021/04/21 02:27:40;;;;;;;13.55;8.75;;;153.90;2252.80;;;;;;5037717;28;20037;-71
2021/04/21 02:30:15;;;;;;;13.05;9.38;;;153.90;2252.80;;;;;;5038256;28;20403;-70
2021/04/21 02:32:53;;;;;;;15.43;9.27;;;153.90;2252.80;;;;;;5038231;28;20033;-69
2021/04/21 02:35:29;;;;;;;;;;;154.00;2252.80;;;;;;5037937;28;20055;-69
2021/04/21 02:38:14;;;;;;;13.25;9.32;;;154.00;2252.80;;;;;;5037241;28;19952;-69
2021/04/21 02:40:46;;;;;;;14.55;9.52;;;154.00;2252.80;;;;;;5037555;28;20025;-71
2021/04/21 02:43:32;;;;;;;15.80;9.30;;;153.90;2252.80;;;;;;5038090;28;20033;-71
2021/04/21 02:46:28;;;;;;;14.13;9.23;;;154.00;2252.80;;;;;;5037462;28;20112;-71
2021/04/21 02:49:18;;;;;;;12.43;8.82;;;154.00;2252.80;;;;;;5037397;28;20445;-69
2021/04/21 02:52:07;;;;;;;14.38;9.05;;;154.00;2252.80;;;;;;5037921;28;20403;-71
2021/04/21 02:54:48;;;;;;;13.55;9.50;;;154.00;2252.80;;;;;;5037274;28;20041;-71
2021/04/21 02:57:49;;;;;;;14.35;8.85;;;154.00;2252.80;;;;;;5037783;28;20029;-70
2021/04/21 03:00:33;;;;;;;12.55;8.80;;;154.00;2252.80;;;;;;5037454;28;20026;-71
2021/04/21 03:03:32;;;;;;;13.80;9.25;;;154.10;2252.80;;;;;;5037522;28;20025;-69
2021/04/21 03:06:02;;;;;;;13.80;9.38;;;154.10;2252.80;;;;;;5032602;28;20029;-71
2021/04/21 03:08:43;;;;;;;11.68;8.15;;;154.10;2252.80;;;;;;5037499;28;20111;-70
2021/04/21 03:11:11;;;;;;;14.25;9.18;;;154.10;2252.80;;;;;;5037415;28;20022;-70
2021/04/21 03:13:46;;;;;;;11.95;9.30;;;154.10;2252.80;;;;;;5036352;28;20061;-71
2021/04/21 03:16:13;;;;;;;13.07;8.93;;;154.10;2252.80;;;;;;5036196;28;20024;-69
2021/04/21 03:18:43;;;;;;;17.05;9.98;;;154.10;2252.80;;;;;;5037524;28;20407;-71
2021/04/21 03:21:30;;;;;;;13.10;9.20;;;154.10;2252.80;;;;;;5036932;28;20017;-71
2021/04/21 03:24:24;;;;;;;13.10;8.93;;;154.10;2252.80;;;;;;5036926;28;20045;-70
2021/04/21 03:26:53;;;;;;;13.05;8.55;;;154.10;2252.80;;;;;;5035446;28;20129;-71
2021/04/21 03:29:25;;;;;;;11.98;9.02;;;154.10;2252.80;;;;;;5037090;28;20079;-70
2021/04/21 03:31:54;;;;;;;13.98;9.40;;;154.10;2252.80;;;;;;5036511;28;20025;-71
2021/04/21 03:34:21;;;;;;;16.77;9.00;;;154.20;2252.80;;;;;;5036673;28;20049;-71
2021/04/21 03:36:48;;;;;;;12.23;8.32;;;154.20;2252.80;;;;;;5036847;28;20026;-71
2021/04/21 03:39:15;;;;;;;14.20;8.85;;;154.20;2252.80;;;;;;5037349;28;20022;-70
2021/04/21 03:41:42;;;;;;;12.63;8.75;;;154.30;2252.80;;;;;;5036789;28;20026;-71
2021/04/21 03:44:08;;;;;;;12.05;8.25;;;154.30;2252.80;;;;;;5037019;28;20032;-71
2021/04/21 03:46:34;;;;;;;11.68;8.88;;;154.30;2252.80;;;;;;5036264;28;20029;-71
2021/04/21 03:49:02;;;;;;;12.25;8.68;;;154.20;2252.80;;;;;;5035799;28;20044;-70
2021/04/21 03:51:28;;;;;;;12.02;7.95;;;154.20;2252.80;;;;;;5036243;28;20025;-69
2021/04/21 03:53:55;;;;;;;17.88;11.45;;;154.20;2252.80;;;;;;5036748;28;20025;-70
2021/04/21 03:56:26;;;;;;;18.60;11.88;;;154.20;2252.80;;;;;;5037028;28;20099;-71
2021/04/21 03:58:54;;;;;;;19.25;12.63;;;154.20;2252.80;;;;;;5036929;28;20025;-69
2021/04/21 04:01:25;;;;;;;22.95;15.10;;;154.30;2252.80;;;;;;5036384;28;20056;-70
2021/04/21 04:03:58;;;;;;;19.60;12.63;;;154.30;2252.80;;;;;;5034192;28;20315;-71
2021/04/21 04:06:50;;;;;;;14.27;10.38;;;154.30;2252.80;;;;;;5036112;28;20101;-71
2021/04/21 04:09:20;;;;;;;12.18;8.73;;;154.40;2252.80;;;;;;5035286;28;20058;-70
2021/04/21 04:11:58;;;;;;;13.50;9.70;;;154.50;2252.80;;;;;;5035837;28;20079;-70
2021/04/21 04:14:30;;;;;;;11.93;8.40;;;154.50;2252.80;;;;;;5035162;28;20029;-71
2021/04/21 04:16:59;;;;;;;11.45;8.35;;;154.50;2252.80;;;;;;5037020;28;20075;-69
2021/04/21 04:19:27;;;;;;;12.50;8.45;;;154.50;2252.80;;;;;;5036738;28;20416;-70
2021/04/21 04:22:04;;;;;;;11.70;8.38;;;154.50;2252.80;;;;;;5036648;28;20029;-71
2021/04/21 04:24:41;;;;;;;12.05;8.95;;;179.20;2252.80;;;;;;5037560;28;20063;-70
2021/04/21 04:27:14;;;;;;;13.80;10.15;;;179.30;2252.80;;;;;;5039780;28;20029;-70
2021/04/21 04:29:42;;;;;;;14.00;9.95;;;179.20;2252.80;;;;;;5039994;28;20052;-71
2021/04/21 04:32:12;;;;;;;16.95;11.55;;;179.30;2252.80;;;;;;5039928;28;20028;-70
2021/04/21 04:34:44;;;;;;;16.25;12.02;;;179.30;2252.80;;;;;;5039751;28;20061;-71
2021/04/21 04:37:12;;;;;;;15.25;11.50;;;179.40;2252.80;;;;;;5039878;28;20415;-70
2021/04/21 04:39:38;;;;;;;12.98;10.20;;;179.40;2252.80;;;;;;5038520;28;20022;-71
2021/04/21 04:42:06;;;;;;;12.10;9.15;;;179.50;2252.80;;;;;;5038813;28;20021;-71
2021/04/21 04:44:40;;;;;;;11.23;8.52;;;179.50;2252.80;;;;;;5038612;28;20032;-70
2021/04/21 04:47:12;;;;;;;13.52;9.57;;;179.60;2252.80;;;;;;5036422;28;20025;-70
2021/04/21 04:49:46;;;;;;;13.95;9.20;;;179.70;2252.80;;;;;;5038626;28;20044;-71
2021/04/21 04:52:15;;;;;;;13.35;9.45;;;179.70;2252.80;;;;;;5038758;28;20021;-71
2021/04/21 04:54:41;;;;;;;13.55;9.07;;;179.80;2252.80;;;;;;5035152;28;20124;-70
2021/04/21 04:57:09;;;;;;;12.27;8.23;;;179.80;2252.80;;;;;;5039755;28;20034;-71
2021/04/21 04:59:36;;;;;;;11.65;8.27;;;179.90;2252.80;;;;;;5039746;28;20025;-70
2021/04/21 05:02:07;;;;;;;12.20;8.90;;;180.00;2252.80;;;;;;5039428;28;20344;-70
2021/04/21 05:04:57;;;;;;;12.02;8.13;;;180.00;2252.80;;;;;;5038999;28;20461;-70
2021/04/21 05:07:43;;;;;;;10.75;8.13;;;204.80;2252.80;;;;;;5034010;28;20029;-70
2021/04/21 05:10:27;;;;;;;11.93;7.22;;;204.90;2252.80;;;;;;5039368;28;20048;-70
2021/04/21 05:12:57;;;;;;;9.73;7.38;;;205.00;2252.80;;;;;;5039732;28;20056;-71
2021/04/21 05:15:51;;;;;;;10.00;7.35;;;205.00;2252.80;;;;;;5039107;28;20025;-71
2021/04/21 05:18:24;;;;;;;10.10;7.78;;;205.20;2252.80;;;;;;5037916;28;20037;-70
2021/04/21 05:21:24;;;;;;;17.83;11.25;;;205.30;2252.80;;;;;;5038734;28;20034;-70
2021/04/21 05:24:23;;;;;;;26.25;20.15;;;205.40;2252.80;;;;;;5038509;28;20029;-68
2021/04/21 05:27:04;;;;;;;21.40;15.48;;;205.50;2252.80;;;;;;5039214;28;20308;-70
2021/04/21 05:30:00;;;;;;;22.52;19.63;;;205.60;2252.80;;;;;;5037374;28;20022;-70
2021/04/21 05:33:00;;;;;;;29.52;26.63;;;230.40;2252.80;;;;;;5037672;28;20295;-70
2021/04/21 05:35:55;;;;;;;13.07;10.68;;;230.50;2252.80;;;;;;5037760;28;20057;-69
2021/04/21 05:38:36;;;;;;;11.32;8.63;;;230.60;2252.80;;;;;;5038973;28;20024;-71
2021/04/21 05:41:40;;;;;;;19.80;13.20;;;230.60;2252.80;;;;;;5039028;28;20029;-68
2021/04/21 05:44:27;;;;;;;115.50;54.17;;;230.70;2252.80;;;;;;5038808;28;20030;-71
2021/04/21 05:47:11;;;;;;;25.77;18.55;;;230.80;2252.80;;;;;;5038796;28;20030;-70
2021/04/21 05:49:52;;;;;;;14.68;11.80;;;230.90;2252.80;;;;;;5038165;28;20021;-71
2021/04/21 05:52:45;;;;;;;18.33;12.82;;;231.10;2252.80;;;;;;5039029;28;20318;-69
2021/04/21 05:55:34;;;;;;;17.27;15.20;;;231.20;2252.80;;;;;;5038700;28;20033;-71
2021/04/21 05:58:00;;;;;;;13.50;10.63;;;231.10;2252.80;;;;;;5038410;28;20415;-70
2021/04/21 06:01:02;;;;;;;15.15;11.35;;;231.10;2252.80;;;;;;5037794;28;20080;-69
2021/04/21 06:03:32;;;;;;;14.23;10.57;;;231.30;2252.80;;;;;;5037825;28;20036;-70
2021/04/21 06:06:02;;;;;;;13.10;10.93;;;256.00;2252.80;;;;;;5037475;28;20338;-69
2021/04/21 06:08:29;;;;;;;14.00;9.75;;;256.30;2252.80;;;;;;5038429;28;20357;-70
2021/04/21 06:10:55;;;;;;;25.92;18.60;;;256.40;2252.80;;;;;;5038011;28;20025;-70
2021/04/21 06:13:32;;;;;;;16.83;11.50;;;256.50;2252.80;;;;;;5038240;28;20054;-70
2021/04/21 06:15:58;;;;;;;12.82;10.00;;;256.70;2252.80;;;;;;5038552;28;20025;-70
2021/04/21 06:18:24;;;;;;;8.48;6.70;;;281.60;2278.40;;;;;;5038205;28;20028;-69
2021/04/21 06:20:51;;;;;;;9.95;7.35;;;281.80;2278.40;;;;;;5037891;28;20029;-71
2021/04/21 06:23:24;;;;;;;18.00;12.00;;;281.90;2278.40;;;;;;5038366;28;20116;-71
2021/04/21 06:26:01;;;;;;;14.13;9.57;;;282.20;2278.40;;;;;;5037811;28;20022;-71
2021/04/21 06:28:27;;;;;;;7.40;5.70;;;282.40;2278.40;;;;;;5038290;28;20029;-70
2021/04/21 06:31:12;;;;;;;8.48;5.65;;;282.40;2278.40;;;;;;5038215;28;20056;-70
2021/04/21 06:33:44;;;;;;;8.05;5.57;;;282.10;2278.40;;;;;;5037681;28;20045;-70
2021/04/21 06:36:13;;;;;;;7.22;5.88;;;281.80;2278.40;;;;;;5038210;28;20022;-70
2021/04/21 06:38:40;;;;;;;15.73;7.40;;;281.60;2278.40;;;;;;5037285;28;20670;-71
2021/04/21 06:41:06;;;;;;;20.20;8.80;;;256.80;2252.80;;;;;;5037467;28;20431;-71
2021/04/21 06:43:34;;;;;;;14.75;7.60;;;281.60;2278.40;;;;;;5037488;28;20029;-71
2021/04/21 06:46:01;;;;;;;16.20;6.50;;;256.90;2252.80;;;;;;5037082;28;20334;-69
2021/04/21 06:48:30;;;;;;;12.95;7.55;;;256.90;2252.80;;;;;;5037515;28;20025;-69
2021/04/21 06:51:09;;;;;;;12.40;6.35;;;281.60;2278.40;;;;;;5037673;28;20079;-71
2021/04/21 06:53:35;;;;;;;;;;;281.70;2278.40;;;;;;5038062;28;20099;-69
2021/04/21 06:56:01;;;;;;;8.70;6.10;;;281.60;2278.40;;;;;;5037583;28;20226;-70
2021/04/21 06:58:30;;;;;;;7.72;5.72;;;256.90;2252.80;;;;;;5037782;28;20025;-69
2021/04/21 07:01:26;;;;;;;11.07;7.25;;;256.90;2252.80;;;;;;5036926;28;20414;-71
2021/04/21 07:03:54;;;;;;;9.95;7.03;;;281.60;2278.40;;;;;;5036614;28;20448;-70
2021/04/21 07:06:21;;;;;;;10.73;7.18;;;281.60;2278.40;;;;;;5037177;28;20026;-69
2021/04/21 07:08:48;;;;;;;10.50;6.60;;;281.70;2278.40;;;;;;5037652;28;20025;-70
2021/04/21 07:11:13;;;;;;;9.82;7.20;;;281.60;2278.40;;;;;;5037056;28;20032;-71
2021/04/21 07:13:50;;;;;;;11.95;6.63;;;256.90;2252.80;;;;;;5035071;28;20033;-70
2021/04/21 07:16:21;;;;;;;12.68;7.15;;;281.60;2278.40;;;;;;5036420;28;20029;-69
2021/04/21 07:19:03;;;;;;;10.82;7.30;;;281.70;2278.40;;;;;;5036761;28;20399;-69
2021/04/21 07:21:30;;;;;;;11.73;6.70;;;282.00;2278.40;;;;;;5036504;28;20029;-71
2021/04/21 07:23:58;;;;;;;13.25;7.28;;;282.20;2278.40;;;;;;5035655;28;20441;-70
2021/04/21 07:26:31;;;;;;;18.98;12.43;;;307.20;2304.00;;;;;;5033259;28;20027;-70
2021/04/21 07:28:57;;;;;;;12.65;11.35;;;307.50;2304.00;;;;;;5035306;28;20091;-69
2021/04/21 07:31:23;;;;;;;10.93;6.97;;;307.90;2304.00;;;;;;5035923;28;20111;-70
2021/04/21 07:33:50;;;;;;;7.10;5.28;;;308.00;2304.00;;;;;;5035391;28;20092;-69
2021/04/21 07:36:22;;;;;;;7.35;5.53;;;307.90;2304.00;;;;;;5035348;28;20025;-69
2021/04/21 07:38:52;;;;;;;7.50;5.93;;;308.00;2304.00;;;;;;5034207;28;20022;-70
2021/04/21 07:41:39;;;;;;;7.72;5.25;;;332.80;2329.60;;;;;;5035696;28;20024;-70
2021/04/21 07:44:07;;;;;;;6.68;5.05;;;333.00;2329.60;;;;;;5033944;28;20109;-71
2021/04/21 07:46:33;;;;;;;8.90;5.53;;;333.10;2329.60;;;;;;5036612;28;20083;-72
2021/04/21 07:48:59;;;;;;;9.50;7.15;;;333.40;2329.60;;;;;;5036952;28;20032;-71
2021/04/21 07:51:24;;;;;;;8.50;5.57;;;333.40;2329.60;;;;;;5036956;28;20030;-70
2021/04/21 07:54:04;;;;;;;6.63;5.03;;;333.30;2329.60;;;;;;5037118;28;20029;-72
2021/04/21 07:56:52;;;;;;;8.85;5.53;;;333.10;2329.60;;;;;;5036976;28;20029;-70
2021/04/21 07:59:22;;;;;;;9.98;4.88;;;332.90;2329.60;;;;;;5035604;28;20021;-71
2021/04/21 08:01:50;;;;;;;10.70;4.97;;;308.10;2304.00;;;;;;5039638;28;20343;-71
2021/04/21 08:04:20;;;;;;;10.18;5.30;;;308.00;2304.00;;;;;;5040198;28;20026;-71
2021/04/21 08:06:48;;;;;;;12.65;5.95;;;332.80;2329.60;;;;;;5040804;28;20025;-72
2021/04/21 08:09:16;;;;;;;14.67;5.00;;;332.90;2329.60;;;;;;5040568;28;20017;-72
2021/04/21 08:11:42;;;;;;;8.80;5.88;;;333.10;2329.60;;;;;;5040474;28;20022;-72
2021/04/21 08:14:08;;;;;;;15.05;10.35;;;333.30;2329.60;;;;;;5039761;28;20057;-71
2021/04/21 08:16:38;;;;;;;15.02;7.03;;;333.70;2329.60;;;;;;5040135;28;20433;-71
2021/04/21 08:19:16;;;;;;;9.00;7.10;;;358.40;2329.60;;;;;;5039834;28;20021;-70
2021/04/21 08:21:47;;;;;;;23.08;10.93;;;358.50;2329.60;;;;;;5040761;28;20026;-71
2021/04/21 08:24:14;;;;;;;13.00;8.80;;;358.60;2329.60;;;;;;5039887;28;20445;-70
2021/04/21 08:26:48;;;;;;;10.85;8.23;;;358.50;2329.60;;;;;;5040339;28;20021;-70
2021/04/21 08:29:16;;;;;;;12.00;7.72;;;358.40;2329.60;;;;;;5040551;28;20052;-70
2021/04/21 08:31:46;;;;;;;9.85;7.43;;;333.60;2329.60;;;;;;5039980;28;20388;-70
2021/04/21 08:34:13;;;;;;;15.45;11.98;;;333.60;2329.60;;;;;;5039628;28;20053;-70
2021/04/21 08:36:39;;;;;;;13.90;9.73;;;333.40;2329.60;;;;;;5040463;28;20087;-72
2021/04/21 08:39:08;;;;;;;20.83;14.43;;;333.30;2329.60;;;;;;5040139;28;20021;-71
2021/04/21 08:41:38;;;;;;;12.45;9.07;;;333.30;2329.60;;;;;;5040108;28;20025;-71
2021/04/21 08:44:04;;;;;;;11.38;6.90;;;333.30;2329.60;;;;;;5039953;28;20383;-72
2021/04/21 08:46:30;;;;;;;7.57;5.32;;;333.40;2329.60;;;;;;5039998;28;20029;-72
2021/04/21 08:49:00;;;;;;;10.40;8.10;;;333.30;2329.60;;;;;;5039929;28;20026;-72
2021/04/21 08:51:28;;;;;;;9.57;7.20;;;333.20;2329.60;;;;;;5039894;28;20406;-71
2021/04/21 08:53:57;;;;;;;10.75;7.85;;;333.30;2329.60;;;;;;5039159;28;20032;-71
2021/04/21 08:56:24;;;;;;;35.47;17.35;;;333.40;2329.60;;;;;;5040091;28;20033;-71
2021/04/21 08:58:51;;;;;;;12.63;9.00;;;333.70;2329.60;;;;;;5039454;28;20067;-71
2021/04/21 09:01:19;;;;;;;11.52;7.05;;;358.50;2329.60;;;;;;5039681;28;20030;-70
2021/04/21 09:03:47;;;;;;;12.60;7.68;;;358.70;2329.60;;;;;;5039664;28;20083;-72
2021/04/21 09:06:18;;;;;;;12.38;8.15;;;358.80;2201.60;;;;;;5039390;28;20033;-71
2021/04/21 09:08:48;;;;;;;11.35;7.75;;;359.10;2304.00;;;;;;5039298;28;20037;-71
2021/04/21 09:11:15;;;;;;;13.38;5.82;;;359.30;2099.20;;;;;;5039593;28;20032;-70
2021/04/21 09:13:41;;;;;;;7.57;5.43;;;359.10;1996.80;;;;;;5038307;28;20120;-71
2021/04/21 09:16:07;;;;;;;10.68;6.30;;;359.30;2022.40;;;;;;5037633;28;20127;-71
2021/04/21 09:18:35;;;;;;;9.13;6.45;;;384.00;1945.60;;;;;;5039020;28;20048;-73
2021/04/21 09:21:04;;;;;;;14.52;6.03;;;384.10;1945.60;;;;;;5038288;28;20071;-71
2021/04/21 09:23:44;;;;;;;8.32;6.05;;;384.30;1894.40;;;;;;5039563;28;20061;-70
2021/04/21 09:26:19;;;;;;;11.27;5.93;;;384.60;1894.40;;;;;;5038897;28;20051;-72
2021/04/21 09:28:47;;;;;;;11.27;5.88;;;384.80;1894.40;;;;;;5039188;28;20438;-72
2021/04/21 09:31:15;;;;;;;8.18;5.80;;;409.60;1843.20;;;;;;5039137;28;20051;-72
2021/04/21 09:33:41;;;;;;;10.73;5.80;;;409.80;1843.20;;;;;;5038508;28;20049;-73
2021/04/21 09:36:07;;;;;;;6.38;5.10;;;409.90;1817.60;;;;;;5038547;28;20342;-72
2021/04/21 09:38:34;;;;;;;9.38;5.82;;;410.10;1792.00;;;;;;5038369;28;20076;-72
2021/04/21 09:41:02;;;;;;;9.38;4.70;;;410.10;1843.20;;;;;;5038188;28;20429;-73
2021/04/21 09:43:34;;;;;;;7.97;4.88;;;409.80;1792.00;;;;;;5038272;28;20029;-72
2021/04/21 09:46:18;;;;;;;6.80;4.82;;;410.00;1792.00;;;;;;5039141;28;20033;-72
2021/04/21 09:48:46;;;;;;;9.25;6.10;;;410.10;1792.00;;;;;;5038871;28;20036;-73
2021/04/21 09:51:14;;;;;;;7.60;4.65;;;410.10;1843.20;;;;;;5038126;28;20425;-73
2021/04/21 09:53:43;;;;;;;6.38;4.47;;;409.90;1817.60;;;;;;5038358;28;20330;-72
2021/04/21 09:56:19;;;;;;;7.25;5.38;;;409.70;1817.60;;;;;;5038312;28;20033;-73
2021/04/21 09:58:55;;;;;;;7.53;4.82;;;384.80;1817.60;;;;;;5038526;28;20103;-70
2021/04/21 10:01:30;;;;;;;8.73;5.00;;;409.70;1817.60;;;;;;5044732;28;20438;-71
2021/04/21 10:04:21;;;;;;;6.22;4.13;;;409.90;1792.00;;;;;;5049293;28;20033;-71
2021/04/21 10:06:55;;;;;;;7.43;4.25;;;410.10;1689.60;;;;;;5036943;28;20028;-72
2021/04/21 10:09:37;;;;;;;5.60;4.28;;;409.90;1715.20;;;;;;5037389;28;20139;-72
2021/04/21 10:12:18;;;;;;;8.75;5.13;;;409.70;1792.00;;;;;;5037050;28;20029;-72
2021/04/21 10:15:01;;;;;;;8.60;6.30;;;384.90;1766.40;;;;;;5036828;28;20021;-72
2021/04/21 10:17:33;;;;;;;10.68;6.88;;;384.80;1792.00;;;;;;5034507;28;20036;-71
2021/04/21 10:20:00;;;;;;;7.22;4.82;;;409.70;1868.80;;;;;;5032347;28;20036;-72
2021/04/21 10:22:26;;;;;;;10.20;4.80;;;409.80;1792.00;;;;;;5035316;28;20022;-73
2021/04/21 10:24:53;;;;;;;7.25;4.72;;;409.60;1817.60;;;;;;5036519;28;20018;-72
2021/04/21 10:27:23;;;;;;;7.18;4.57;;;409.60;1792.00;;;;;;5035896;28;20056;-72
2021/04/21 10:29:50;;;;;;;9.13;5.78;;;409.70;1843.20;;;;;;5035496;28;20048;-72
2021/04/21 10:32:15;;;;;;;9.55;6.97;;;409.90;1792.00;;;;;;5035927;28;20028;-72
2021/04/21 10:34:46;;;;;;;9.55;7.78;;;410.10;1766.40;;;;;;5035901;28;20048;-73
2021/04/21 10:37:13;;;;;;;9.43;7.32;;;410.40;1766.40;;;;;;5036645;28;20087;-71
2021/04/21 10:39:40;;;;;;;7.30;5.35;;;435.30;1740.80;;;;;;5033532;28;20075;-71
2021/04/21 10:42:12;;;;;;;8.63;5.82;;;410.40;1740.80;;;;;;5036555;28;20025;-71
2021/04/21 10:44:43;;;;;;;11.93;5.68;;;410.20;1792.00;;;;;;5037158;28;20029;-73
2021/04/21 10:47:14;;;;;;;8.15;5.38;;;410.10;1817.60;;;;;;5037762;28;20025;-70
2021/04/21 10:49:50;;;;;;;10.18;6.25;;;410.40;1766.40;;;;;;5036738;28;20025;-72
2021/04/21 10:52:32;;;;;;;6.57;5.07;;;435.30;1740.80;;;;;;5036874;28;20018;-71
2021/04/21 10:55:11;;;;;;;10.32;5.20;;;410.30;1689.60;;;;;;5037213;28;20033;-71
2021/04/21 10:57:55;;;;;;;;;;;410.40;1689.60;;;;;;5037921;28;20156;-72
2021/04/21 11:00:28;;;;;;;172.90;119.32;;;410.40;1689.60;;;;;;5036944;28;19905;-72
2021/04/21 11:02:57;;;;;;;39.75;26.02;;;435.60;1664.00;;;;;;5037330;28;20029;-71
2021/04/21 11:05:37;;;;;;;6.60;4.82;;;436.00;1689.60;;;;;;5035961;28;20037;-73
2021/04/21 11:08:10;;;;;;;7.53;5.10;;;436.10;1612.80;;;;;;5033202;28;20037;-71
2021/04/21 11:10:37;;;;;;;6.15;4.18;;;435.70;1638.40;;;;;;5035923;28;20025;-72
2021/04/21 11:13:06;;;;;;;6.60;4.60;;;435.60;1689.60;;;;;;5032708;28;20049;-73
2021/04/21 11:15:43;;;;;;;5.70;4.05;;;435.50;1612.80;;;;;;5035884;28;20048;-71
2021/04/21 11:18:12;;;;;;;6.07;4.72;;;435.60;1587.20;;;;;;5034405;28;20449;-70
2021/04/21 11:20:47;;;;;;;;;;;435.90;1664.00;;;;;;5036843;28;20057;-69
2021/04/21 11:24:01;;;;;;;8.13;4.32;;;435.80;1510.40;;;;;;5037224;28;19913;-70
2021/04/21 11:26:27;;;;;;;15.07;9.57;;;460.90;1536.00;;;;;;5036232;28;20083;-70
2021/04/21 11:29:07;;;;;;;6.03;4.00;;;460.90;1536.00;;;;;;5036966;28;20079;-70
2021/04/21 11:34:19;;;;;;;10.98;5.85;;;460.80;1536.00;;;;;;5036562;28;20061;-72
2021/04/21 11:37:07;;;;;;;11.98;6.88;;;436.00;1664.00;;;;;;5041357;28;20330;-71
2021/04/21 11:39:47;;;;;;;6.50;4.07;;;435.80;1561.60;;;;;;5040773;28;20030;-71
2021/04/21 11:42:28;;;;;;;6.15;4.38;;;435.70;1561.60;;;;;;5040517;28;20021;-71
2021/04/21 11:45:05;;;;;;;6.55;4.68;;;435.60;1536.00;;;;;;5040379;28;20025;-71
2021/04/21 11:47:44;;;;;;;4.78;3.70;;;460.80;1561.60;;;;;;5040543;28;20104;-70
2021/04/21 11:50:28;;;;;;;5.53;3.72;;;460.80;1510.40;;;;;;5040529;28;20026;-70
2021/04/21 11:53:15;;;;;;;5.47;4.30;;;436.00;1433.60;;;;;;5039044;28;20033;-72
2021/04/21 11:55:56;;;;;;;5.13;3.90;;;436.10;1484.80;;;;;;5039958;28;20040;-72
2021/04/21 11:58:28;;;;;;;6.07;4.10;;;461.20;1459.20;;;;;;5040878;28;20318;-72
2021/04/21 12:01:02;;;;;;;6.70;5.25;;;461.60;1459.20;;;;;;5039119;28;20053;-71
2021/04/21 12:03:39;;;;;;;5.93;4.65;;;512.80;1280.00;;;;;;5039816;28;20033;-71
2021/04/21 12:06:10;;;;;;;4.95;4.20;;;615.00;1100.80;;;;;;5040016;28;20079;-70
2021/04/21 12:08:38;;;;;;;5.32;4.82;;;691.60;972.80;;;;;;5040558;28;20025;-70
2021/04/21 12:11:05;;;;;;;;;;;717.50;972.80;;;;;;5040556;28;20030;-69
2021/04/21 12:13:40;;;;;;;5.50;5.00;;;743.30;921.60;;;;;;5039736;28;19920;-71
2021/04/21 12:16:09;;;;;;;5.53;4.40;;;768.80;870.40;;;;;;5039196;28;20047;-70
2021/04/21 12:18:56;;;;;;;4.75;4.30;;;742.40;947.20;;;;;;5039404;28;20066;-71
2021/04/21 12:21:24;;;;;;;4.82;4.32;;;742.90;921.60;;;;;;5039819;28;20333;-70
2021/04/21 12:24:02;;;;;;;7.45;6.45;;;768.90;844.80;;;;;;5039995;28;20032;-70
2021/04/21 12:26:30;;;;;;;5.63;5.00;;;793.70;921.60;;;;;;5039767;28;20116;-71
2021/04/21 12:29:00;;;;;;;4.40;3.30;;;793.90;896.00;;;;;;5039473;28;20411;-71
2021/04/21 12:31:27;;;;;;;6.45;3.78;;;665.90;998.40;;;;;;5040003;28;20023;-71
2021/04/21 12:33:57;;;;;;;5.38;3.25;;;563.90;1177.60;;;;;;5039285;28;20366;-71
2021/04/21 12:36:28;;;;;;;4.25;3.50;;;537.60;1280.00;;;;;;5039442;28;20033;-71
2021/04/21 12:39:06;;;;;;;5.43;3.63;;;487.10;1305.60;;;;;;5039941;28;20026;-71
2021/04/21 12:41:33;;;;;;;5.82;4.13;;;435.70;1536.00;;;;;;5039706;28;20021;-70
2021/04/21 12:44:17;;;;;;;6.88;4.72;;;409.80;1664.00;;;;;;5039077;28;20033;-72
2021/04/21 12:46:44;;;;;;;8.68;5.55;;;384.50;1740.80;;;;;;5038912;28;20036;-68
2021/04/21 12:49:10;;;;;;;9.45;5.80;;;384.00;1843.20;;;;;;5039079;28;20113;-71